Terminal Aerodrome Forecast
Issued by NWS

Home | Current Version | Previous Version | Text Only | Print | Product List | Glossary Off
Versions: 1 2 3 4 5 6 7 8 9 10 11 12 13 14

000
FTUS43 KGRB 241700
TAFATW
TAF
KATW 241734Z 2418/2518 26015G25KT P6SM SCT025 BKN035
      TEMPO 2418/2420 4SM -SN BKN025
     FM242200 29018G28KT P6SM SCT035
     FM250200 32010KT P6SM SCT035
     FM250900 30005KT P6SM SCT250
     FM251500 34006KT P6SM BKN200=

USA.gov is the U.S. government's official web portal to all federal, state and local government web resources and services.